createdAt,value
2023-02-23T00:00:56.456Z,6.80
2023-02-23T00:03:42.557Z,6.17
2023-02-23T00:06:29.399Z,7.67
2023-02-23T00:09:28.081Z,6.03
2023-02-23T00:12:13.192Z,6.23
2023-02-23T00:14:59.705Z,6.30
2023-02-23T00:17:47.833Z,6.00
2023-02-23T00:20:33.903Z,6.70
2023-02-23T00:23:22.606Z,7.10
2023-02-23T00:26:08.248Z,7.13
2023-02-23T00:28:56.674Z,6.63
2023-02-23T00:31:44.441Z,6.70
2023-02-23T00:34:32.108Z,7.63
2023-02-23T00:37:19.324Z,6.03
2023-02-23T00:40:13.086Z,6.43
2023-02-23T00:42:58.323Z,7.10
2023-02-23T00:45:43.716Z,6.90
2023-02-23T00:48:29.054Z,7.83
2023-02-23T00:51:15.021Z,7.23
2023-02-23T00:54:01.198Z,7.80
2023-02-23T00:56:47.687Z,5.97
2023-02-23T00:59:32.925Z,7.07
2023-02-23T01:02:18.733Z,8.20
2023-02-23T01:05:06.880Z,7.80
2023-02-23T01:07:54.489Z,6.70
2023-02-23T01:10:42.966Z,7.00
2023-02-23T01:13:28.631Z,8.23
2023-02-23T01:16:17.378Z,7.10
2023-02-23T01:19:05.279Z,8.37
2023-02-23T01:21:53.000Z,7.07
2023-02-23T01:24:40.900Z,7.73
2023-02-23T01:27:29.279Z,7.07
2023-02-23T01:30:18.092Z,7.20
2023-02-23T01:33:06.690Z,7.57
2023-02-23T01:36:01.498Z,7.10
2023-02-23T01:38:46.836Z,8.27
2023-02-23T01:41:35.113Z,7.43
2023-02-23T01:44:20.489Z,7.60
2023-02-23T01:47:06.679Z,8.13
2023-02-23T01:49:52.035Z,7.40
2023-02-23T01:52:40.254Z,6.90
2023-02-23T01:55:29.881Z,9.03
2023-02-23T01:58:19.970Z,7.30
2023-02-23T02:01:05.825Z,7.17
2023-02-23T02:04:00.927Z,6.77
2023-02-23T02:06:53.873Z,8.30
2023-02-23T02:10:03.174Z,6.73
2023-02-23T02:12:58.287Z,7.30
2023-02-23T02:16:13.205Z,7.20
2023-02-23T02:19:20.558Z,8.67
2023-02-23T02:22:41.749Z,8.10
2023-02-23T02:25:47.872Z,7.27
2023-02-23T02:28:46.226Z,7.80
2023-02-23T02:31:46.641Z,7.10
2023-02-23T02:34:57.289Z,7.90
2023-02-23T02:38:17.437Z,7.40
2023-02-23T02:41:19.678Z,7.63
2023-02-23T02:44:29.443Z,7.70
2023-02-23T02:47:24.502Z,7.20
2023-02-23T02:50:30.749Z,7.80
2023-02-23T02:53:36.677Z,9.00
2023-02-23T02:56:25.323Z,8.37
2023-02-23T02:59:35.536Z,8.37
2023-02-23T03:02:41.968Z,7.20
2023-02-23T03:06:11.162Z,7.50
2023-02-23T03:09:29.158Z,8.30
2023-02-23T03:12:45.006Z,7.83
2023-02-23T03:16:26.854Z,7.50
2023-02-23T03:19:48.589Z,8.00
2023-02-23T03:23:00.962Z,7.33
2023-02-23T03:26:18.382Z,8.40
2023-02-23T03:29:55.891Z,8.10
2023-02-23T03:36:36.538Z,7.13
2023-02-23T03:39:55.944Z,8.30
2023-02-23T03:43:01.801Z,9.03
2023-02-23T03:46:07.292Z,8.00
2023-02-23T03:49:14.379Z,8.60
2023-02-23T03:52:40.584Z,7.60
2023-02-23T03:55:51.792Z,7.70
2023-02-23T03:59:05.072Z,7.47
2023-02-23T04:02:14.029Z,7.53
2023-02-23T04:05:26.423Z,7.57
2023-02-23T04:08:37.073Z,8.30
2023-02-23T04:12:06.704Z,8.10
2023-02-23T04:15:00.121Z,8.00
2023-02-23T04:17:46.286Z,7.77
2023-02-23T04:20:31.734Z,8.30
2023-02-23T04:23:17.780Z,7.60
2023-02-23T04:26:03.102Z,6.90
2023-02-23T04:28:48.690Z,8.10
2023-02-23T04:31:36.133Z,8.00
2023-02-23T04:34:25.132Z,7.23
2023-02-23T04:37:10.719Z,8.03
2023-02-23T04:39:58.273Z,8.90
2023-02-23T04:42:45.842Z,7.77
2023-02-23T04:45:31.575Z,7.70
2023-02-23T04:48:20.195Z,8.30
2023-02-23T04:51:05.770Z,8.53
2023-02-23T04:53:51.592Z,8.80
2023-02-23T04:56:37.048Z,7.90
2023-02-23T04:59:22.591Z,8.60
2023-02-23T05:02:11.912Z,8.03
2023-02-23T05:04:57.607Z,8.33
2023-02-23T05:07:43.954Z,7.43
2023-02-23T05:10:33.160Z,8.73
2023-02-23T05:13:18.519Z,9.53
2023-02-23T05:16:04.265Z,9.07
2023-02-23T05:18:50.400Z,7.73
2023-02-23T05:21:36.349Z,8.40
2023-02-23T05:24:21.798Z,7.83
2023-02-23T05:27:09.294Z,8.00
2023-02-23T05:29:54.609Z,7.20
2023-02-23T05:32:40.256Z,6.83
2023-02-23T05:35:25.854Z,8.13
2023-02-23T05:38:11.527Z,8.27
2023-02-23T05:40:57.122Z,8.37
2023-02-23T05:43:48.316Z,8.17
2023-02-23T05:46:34.273Z,8.30
2023-02-23T05:49:22.543Z,8.13
2023-02-23T05:52:09.327Z,8.50
2023-02-23T05:54:57.330Z,8.10
2023-02-23T05:57:45.619Z,8.20
2023-02-23T06:00:31.337Z,7.97
2023-02-23T06:03:16.951Z,8.43
2023-02-23T06:06:02.465Z,7.63
2023-02-23T06:08:48.159Z,6.97
2023-02-23T06:11:33.601Z,8.00
2023-02-23T06:14:24.052Z,7.10
2023-02-23T06:17:09.413Z,8.27
2023-02-23T06:19:55.160Z,7.60
2023-02-23T06:22:42.315Z,7.20
2023-02-23T06:25:30.974Z,6.67
2023-02-23T06:28:17.184Z,7.20
2023-02-23T06:31:02.949Z,7.00
2023-02-23T06:33:50.961Z,8.73
2023-02-23T06:36:37.162Z,6.77
2023-02-23T06:39:24.883Z,8.50
2023-02-23T06:42:12.168Z,8.50
2023-02-23T06:44:57.566Z,9.07
2023-02-23T06:47:45.215Z,8.50
2023-02-23T06:50:33.044Z,9.00
2023-02-23T06:53:18.595Z,9.40
2023-02-23T06:56:04.352Z,7.87
2023-02-23T06:58:50.436Z,7.90
2023-02-23T07:01:35.817Z,7.50
2023-02-23T07:04:24.853Z,8.63
2023-02-23T07:07:11.150Z,7.77
2023-02-23T07:09:58.889Z,9.03
2023-02-23T07:12:48.976Z,9.40
2023-02-23T07:15:38.866Z,8.77
2023-02-23T07:18:24.513Z,6.80
2023-02-23T07:21:10.341Z,8.33
2023-02-23T07:23:56.049Z,8.07
2023-02-23T07:26:43.578Z,8.67
2023-02-23T07:29:29.830Z,7.50
2023-02-23T07:32:19.350Z,8.13
2023-02-23T07:35:07.829Z,9.67
2023-02-23T07:37:53.916Z,8.07
2023-02-23T07:40:39.901Z,7.80
2023-02-23T07:43:25.905Z,7.60
2023-02-23T07:46:11.688Z,7.87
2023-02-23T07:48:59.891Z,7.60
2023-02-23T07:51:47.946Z,8.17
2023-02-23T07:54:33.633Z,8.37
2023-02-23T07:57:22.497Z,7.80
2023-02-23T08:00:10.733Z,8.30
2023-02-23T08:02:56.092Z,9.23
2023-02-23T08:05:41.436Z,9.53
2023-02-23T08:08:29.233Z,9.37
2023-02-23T08:11:17.271Z,8.50
2023-02-23T08:14:03.749Z,8.30
2023-02-23T08:16:51.456Z,8.63
2023-02-23T08:19:40.209Z,8.57
2023-02-23T08:22:27.577Z,8.20
2023-02-23T08:25:13.053Z,8.27
2023-02-23T08:28:04.783Z,8.37
2023-02-23T08:30:52.646Z,8.67
2023-02-23T08:33:40.812Z,7.90
2023-02-23T08:36:28.746Z,8.50
2023-02-23T08:39:14.147Z,7.27
2023-02-23T08:41:59.594Z,8.40
2023-02-23T08:44:45.011Z,7.33
2023-02-23T08:47:30.475Z,9.00
2023-02-23T08:50:16.816Z,7.73
2023-02-23T08:53:02.273Z,8.37
2023-02-23T08:55:52.687Z,9.40
2023-02-23T08:58:38.193Z,8.80
2023-02-23T09:01:23.948Z,9.50
2023-02-23T09:04:09.828Z,8.40
2023-02-23T09:06:55.194Z,8.07
2023-02-23T09:09:43.367Z,9.03
2023-02-23T09:12:31.300Z,8.27
2023-02-23T09:15:16.757Z,7.60
2023-02-23T09:18:03.362Z,7.90
2023-02-23T09:20:48.727Z,7.97
2023-02-23T09:23:35.599Z,8.67
2023-02-23T09:26:21.949Z,8.77
2023-02-23T09:29:08.181Z,8.60
2023-02-23T09:31:57.671Z,8.50
2023-02-23T09:34:43.010Z,8.00
2023-02-23T09:37:28.920Z,8.60
2023-02-23T09:40:21.920Z,9.40
2023-02-23T09:43:16.396Z,8.10
2023-02-23T09:46:29.587Z,8.30
2023-02-23T09:49:18.491Z,8.77
2023-02-23T09:52:05.011Z,8.23
2023-02-23T09:54:50.870Z,10.47
2023-02-23T09:57:43.856Z,9.30
2023-02-23T10:00:30.983Z,8.40
2023-02-23T10:03:48.825Z,10.07
2023-02-23T10:06:35.099Z,9.17
2023-02-23T10:09:44.713Z,7.70
2023-02-23T10:12:56.158Z,9.23
2023-02-23T10:15:57.727Z,7.97
2023-02-23T10:19:24.261Z,9.20
2023-02-23T10:22:13.029Z,9.00
2023-02-23T10:25:20.227Z,8.77
2023-02-23T10:28:06.494Z,9.80
2023-02-23T10:30:56.260Z,8.90
2023-02-23T10:33:44.987Z,9.60
2023-02-23T10:36:41.226Z,9.43
2023-02-23T10:39:27.862Z,10.00
2023-02-23T10:42:17.566Z,8.90
2023-02-23T10:45:03.163Z,8.80
2023-02-23T10:47:55.940Z,9.37
2023-02-23T10:50:43.884Z,9.20
2023-02-23T10:53:35.899Z,8.97
2023-02-23T10:56:23.447Z,9.70
2023-02-23T10:59:19.433Z,10.20
2023-02-23T11:02:25.845Z,8.90
2023-02-23T11:05:53.849Z,9.50
2023-02-23T11:08:41.535Z,9.27
2023-02-23T11:11:29.099Z,10.00
2023-02-23T11:14:17.727Z,9.90
2023-02-23T11:17:03.352Z,9.23
2023-02-23T11:19:52.500Z,9.10
2023-02-23T11:22:42.778Z,10.23
2023-02-23T11:25:30.664Z,8.70
2023-02-23T11:28:20.918Z,10.33
2023-02-23T11:31:20.463Z,9.37
2023-02-23T11:34:06.837Z,10.40
2023-02-23T11:37:13.430Z,9.70
2023-02-23T11:40:19.087Z,11.47
2023-02-23T11:43:25.520Z,9.80
2023-02-23T11:46:10.970Z,9.97
2023-02-23T11:48:59.799Z,11.23
2023-02-23T11:51:51.850Z,11.37
2023-02-23T11:54:38.544Z,9.53
2023-02-23T11:57:33.743Z,10.20
2023-02-23T12:00:28.721Z,10.20
2023-02-23T12:03:23.052Z,10.43
2023-02-23T12:06:10.344Z,10.67
2023-02-23T12:09:18.594Z,11.07
2023-02-23T12:12:21.843Z,9.67
2023-02-23T12:15:20.341Z,10.60
2023-02-23T12:18:15.328Z,10.93
2023-02-23T12:21:23.488Z,11.20
2023-02-23T12:24:11.626Z,10.43
2023-02-23T12:27:17.985Z,10.50
2023-02-23T12:30:19.480Z,10.00
2023-02-23T12:33:22.972Z,10.13
2023-02-23T12:36:42.708Z,11.00
2023-02-23T12:39:36.133Z,9.77
2023-02-23T12:42:48.031Z,11.13
2023-02-23T12:45:45.350Z,9.73
2023-02-23T12:48:47.985Z,9.10
2023-02-23T12:51:42.025Z,10.60
2023-02-23T12:54:28.126Z,9.83
2023-02-23T12:57:38.649Z,9.67
2023-02-23T13:00:30.892Z,10.40
2023-02-23T13:03:52.589Z,10.10
2023-02-23T13:07:13.060Z,9.83
2023-02-23T13:10:16.993Z,10.33
2023-02-23T13:13:43.241Z,9.73
2023-02-23T13:16:47.141Z,9.40
2023-02-23T13:19:37.140Z,11.70
2023-02-23T13:22:40.648Z,9.60
2023-02-23T13:25:43.828Z,10.30
2023-02-23T13:28:45.849Z,10.30
2023-02-23T13:31:41.194Z,10.10
2023-02-23T13:34:32.522Z,10.17
2023-02-23T13:37:20.721Z,9.50
2023-02-23T13:40:15.036Z,9.63
2023-02-23T13:43:13.735Z,10.17
2023-02-23T13:46:51.192Z,10.40
2023-02-23T13:50:02.401Z,11.50
2023-02-23T13:52:48.258Z,10.60
2023-02-23T13:55:58.051Z,12.10
2023-02-23T13:58:58.688Z,12.30
2023-02-23T14:01:49.498Z,10.63
2023-02-23T14:04:37.741Z,11.47
2023-02-23T14:07:32.344Z,11.43
2023-02-23T14:10:23.616Z,10.10
2023-02-23T14:13:15.800Z,11.70
2023-02-23T14:16:17.523Z,9.60
2023-02-23T14:19:35.848Z,10.77
2023-02-23T14:22:22.193Z,11.23
2023-02-23T14:25:32.816Z,11.00
2023-02-23T14:28:31.219Z,12.87
2023-02-23T14:31:25.875Z,12.70
2023-02-23T14:34:14.413Z,12.17
2023-02-23T14:37:15.332Z,11.90
2023-02-23T14:40:29.158Z,12.93
2023-02-23T14:43:33.229Z,13.83
2023-02-23T14:46:24.844Z,13.70
2023-02-23T14:49:19.222Z,14.17
2023-02-23T14:52:24.536Z,13.67
2023-02-23T14:55:12.825Z,13.40
2023-02-23T14:58:02.057Z,15.30
2023-02-23T15:00:49.015Z,13.47
2023-02-23T15:03:34.888Z,14.27
2023-02-23T15:06:20.470Z,13.50
2023-02-23T15:09:08.916Z,15.47
2023-02-23T15:12:00.871Z,14.37
2023-02-23T15:14:52.213Z,14.47
2023-02-23T15:17:41.373Z,14.30
2023-02-23T15:23:20.181Z,17.37
2023-02-23T15:26:31.932Z,16.27
2023-02-23T15:29:23.347Z,15.37
2023-02-23T15:32:17.623Z,14.87
2023-02-23T15:35:05.068Z,15.83
2023-02-23T15:37:59.554Z,16.03
2023-02-23T15:41:06.687Z,16.80
2023-02-23T15:43:52.507Z,14.80
2023-02-23T15:46:39.254Z,15.87
2023-02-23T15:49:31.656Z,14.37
2023-02-23T15:52:22.209Z,15.43
2023-02-23T15:55:10.148Z,14.60
2023-02-23T15:58:00.800Z,15.97
2023-02-23T16:00:55.590Z,18.47
2023-02-23T16:03:55.543Z,15.50
2023-02-23T16:06:56.178Z,16.87
2023-02-23T16:09:49.777Z,17.13
2023-02-23T16:12:38.790Z,16.43
2023-02-23T16:15:27.605Z,16.13
2023-02-23T16:18:20.176Z,16.40
2023-02-23T16:21:06.624Z,18.00
2023-02-23T16:23:54.901Z,17.27
2023-02-23T16:26:57.099Z,16.70
2023-02-23T16:29:42.836Z,18.77
2023-02-23T16:32:41.472Z,18.07
2023-02-23T16:35:39.190Z,17.57
2023-02-23T16:38:35.272Z,17.20
2023-02-23T16:41:22.674Z,18.70
2023-02-23T16:44:16.042Z,19.30
2023-02-23T16:47:02.111Z,20.60
2023-02-23T16:49:48.053Z,18.67
2023-02-23T16:52:33.533Z,21.97
2023-02-23T16:55:28.484Z,20.33
2023-02-23T16:58:19.460Z,21.20
2023-02-23T17:01:05.214Z,20.30
2023-02-23T17:04:05.971Z,20.63
2023-02-23T17:06:57.927Z,21.70
2023-02-23T17:09:43.786Z,21.57
2023-02-23T17:12:29.646Z,21.93
2023-02-23T17:15:19.061Z,21.43
2023-02-23T17:18:05.792Z,21.10
2023-02-23T17:20:55.548Z,22.13
2023-02-23T17:23:51.354Z,22.33
2023-02-23T17:26:36.975Z,19.33
2023-02-23T17:29:22.675Z,22.10
2023-02-23T17:32:10.857Z,21.93
2023-02-23T17:34:56.638Z,23.30
2023-02-23T17:37:47.345Z,22.97
2023-02-23T17:40:36.360Z,22.30
2023-02-23T17:43:23.890Z,22.30
2023-02-23T17:46:13.070Z,21.90
2023-02-23T17:48:58.801Z,24.20
2023-02-23T17:51:44.458Z,23.27
2023-02-23T17:54:30.373Z,22.13
2023-02-23T17:57:16.304Z,24.50
2023-02-23T18:00:01.788Z,22.30
2023-02-23T18:02:47.952Z,24.17
2023-02-23T18:05:33.215Z,23.10
2023-02-23T18:08:20.259Z,23.37
2023-02-23T18:11:06.024Z,23.67
2023-02-23T18:13:51.658Z,22.77
2023-02-23T18:16:37.173Z,22.27
2023-02-23T18:19:25.680Z,23.10
2023-02-23T18:22:11.504Z,22.60
2023-02-23T18:24:57.350Z,24.30
2023-02-23T18:27:43.977Z,22.90
2023-02-23T18:30:29.297Z,23.80
2023-02-23T18:33:15.996Z,25.67
2023-02-23T18:36:01.867Z,23.23
2023-02-23T18:38:47.644Z,25.17
2023-02-23T18:41:33.227Z,25.70
2023-02-23T18:44:23.237Z,25.20
2023-02-23T18:47:08.556Z,23.90
2023-02-23T18:49:54.074Z,24.67
2023-02-23T18:52:40.729Z,23.57
2023-02-23T18:55:26.179Z,22.40
2023-02-23T18:58:11.855Z,22.67
2023-02-23T19:00:57.410Z,23.37
2023-02-23T19:03:45.036Z,22.63
2023-02-23T19:06:34.989Z,18.23
2023-02-23T19:09:22.499Z,18.23
2023-02-23T19:12:11.438Z,20.27
2023-02-23T19:14:57.681Z,21.00
2023-02-23T19:17:42.926Z,21.17
2023-02-23T19:20:32.602Z,19.60
2023-02-23T19:23:21.860Z,20.40
2023-02-23T19:26:09.576Z,21.40
2023-02-23T19:28:55.431Z,20.10
2023-02-23T19:31:40.660Z,18.97
2023-02-23T19:34:26.656Z,20.30
2023-02-23T19:37:12.914Z,20.50
2023-02-23T19:40:03.877Z,18.50
2023-02-23T19:42:51.043Z,20.20
2023-02-23T19:45:46.112Z,17.83
2023-02-23T19:48:31.665Z,17.90
2023-02-23T19:51:20.260Z,18.23
2023-02-23T19:54:06.751Z,18.80
2023-02-23T19:56:52.072Z,20.87
2023-02-23T19:59:37.913Z,18.53
2023-02-23T20:02:24.066Z,17.00
2023-02-23T20:05:11.945Z,14.60
2023-02-23T20:07:57.634Z,15.27
2023-02-23T20:10:42.877Z,14.23
2023-02-23T20:13:28.042Z,13.37
2023-02-23T20:16:15.015Z,13.27
2023-02-23T20:19:02.453Z,10.90
2023-02-23T20:21:50.627Z,12.47
2023-02-23T20:24:41.089Z,10.80
2023-02-23T20:27:29.991Z,10.50
2023-02-23T20:30:15.638Z,10.70
2023-02-23T20:33:10.708Z,11.77
2023-02-23T20:35:58.480Z,12.73
2023-02-23T20:38:43.614Z,10.37
2023-02-23T20:41:32.081Z,13.57
2023-02-23T20:44:17.661Z,12.57
2023-02-23T20:47:09.803Z,12.47
2023-02-23T20:49:55.855Z,14.37
2023-02-23T20:52:42.625Z,13.17
2023-02-23T20:55:29.928Z,13.80
2023-02-23T20:58:17.795Z,13.90
2023-02-23T21:01:22.984Z,12.57
2023-02-23T21:04:12.931Z,14.30
2023-02-23T21:07:07.716Z,14.20
2023-02-23T21:09:59.326Z,15.40
2023-02-23T21:12:47.023Z,14.90
2023-02-23T21:15:35.804Z,12.93
2023-02-23T21:18:24.084Z,14.50
2023-02-23T21:21:10.758Z,14.63
2023-02-23T21:23:56.007Z,14.97
2023-02-23T21:26:42.674Z,14.37
2023-02-23T21:29:28.609Z,13.67
2023-02-23T21:32:17.425Z,14.83
2023-02-23T21:35:03.109Z,14.30
2023-02-23T21:37:50.933Z,13.00
2023-02-23T21:40:42.192Z,14.80
2023-02-23T21:43:28.161Z,13.30
2023-02-23T21:46:16.212Z,14.83
2023-02-23T21:49:03.265Z,14.47
2023-02-23T21:51:50.490Z,14.63
2023-02-23T21:54:37.568Z,12.67
2023-02-23T21:57:23.731Z,14.27
2023-02-23T22:00:10.497Z,13.77
2023-02-23T22:02:58.433Z,14.57
2023-02-23T22:05:44.678Z,15.00
2023-02-23T22:08:30.820Z,14.50
2023-02-23T22:11:18.728Z,15.47
2023-02-23T22:14:06.724Z,15.20
2023-02-23T22:16:52.720Z,16.10
2023-02-23T22:19:40.678Z,14.87
2023-02-23T22:22:26.528Z,16.00
2023-02-23T22:25:12.099Z,13.80
2023-02-23T22:27:59.836Z,14.90
2023-02-23T22:30:50.869Z,14.63
2023-02-23T22:33:39.565Z,17.30
2023-02-23T22:36:25.292Z,14.60
2023-02-23T22:39:16.148Z,16.27
2023-02-23T22:42:09.214Z,13.40
2023-02-23T22:44:55.032Z,14.70
2023-02-23T22:47:40.542Z,12.77
2023-02-23T22:50:25.963Z,13.63
2023-02-23T22:53:11.679Z,14.57
2023-02-23T22:55:59.716Z,12.80
2023-02-23T22:58:49.753Z,12.53
2023-02-23T23:01:41.802Z,12.40
2023-02-23T23:04:27.434Z,13.27
2023-02-23T23:07:13.358Z,12.63
2023-02-23T23:10:05.726Z,12.50
2023-02-23T23:12:51.535Z,11.27
2023-02-23T23:15:38.967Z,13.23
2023-02-23T23:18:28.154Z,12.33
2023-02-23T23:21:21.743Z,13.20
2023-02-23T23:24:08.352Z,11.93
2023-02-23T23:26:59.973Z,13.17
2023-02-23T23:29:48.649Z,10.60
2023-02-23T23:32:37.075Z,12.30
2023-02-23T23:35:23.284Z,11.77
2023-02-23T23:38:10.933Z,13.27
2023-02-23T23:40:57.310Z,12.83
2023-02-23T23:43:46.392Z,10.50
2023-02-23T23:46:35.533Z,11.97
2023-02-23T23:49:25.508Z,11.57
2023-02-23T23:52:11.009Z,11.40
2023-02-23T23:54:57.094Z,10.70
2023-02-23T23:57:45.246Z,11.13
